Time;durP1;ratioP1;P1;durP2;ratioP2;P2;SDS_P1;SDS_P2;PMS_P1;PMS_P2;Temp;Humidity;BMP_temperature;BMP_pressure;BME280_temperature;BME280_humidity;BME280_pressure;Samples;Min_cycle;Max_cycle;Signal;HPM_P1;HPM_P2
2022/12/16 00:00:08;;;;;;;1.35;1.00;;;26.30;52.30;;;;;;5010269;28;20243;-38
2022/12/16 00:02:41;;;;;;;2.75;1.20;;;26.30;52.30;;;;;;5010676;28;20196;-40
2022/12/16 00:05:12;;;;;;;1.38;1.13;;;26.30;52.30;;;;;;5010460;28;20212;-41
2022/12/16 00:07:42;;;;;;;1.80;1.17;;;26.30;52.40;;;;;;5006009;28;20201;-47
2022/12/16 00:10:13;;;;;;;1.88;1.27;;;26.30;52.40;;;;;;5010750;28;20200;-44
2022/12/16 00:12:44;;;;;;;1.95;1.10;;;26.30;52.50;;;;;;5010450;28;20197;-39
2022/12/16 00:15:15;;;;;;;1.30;0.90;;;26.30;52.50;;;;;;5009769;28;20204;-40
2022/12/16 00:17:48;;;;;;;2.15;1.17;;;26.30;52.50;;;;;;5010067;28;20676;-39
2022/12/16 00:20:19;;;;;;;1.60;1.27;;;26.40;52.70;;;;;;5011338;28;20576;-39
2022/12/16 00:22:49;;;;;;;1.15;1.05;;;26.40;52.70;;;;;;5014399;28;20208;-39
2022/12/16 00:25:20;;;;;;;1.98;1.20;;;26.40;52.70;;;;;;5013343;28;20205;-39
2022/12/16 00:27:51;;;;;;;2.50;1.35;;;26.40;52.80;;;;;;5010589;28;20200;-38
2022/12/16 00:30:21;;;;;;;2.13;1.40;;;26.40;52.90;;;;;;5015722;28;20207;-40
2022/12/16 00:32:54;;;;;;;1.73;1.10;;;26.40;52.90;;;;;;5033599;28;20199;-40
2022/12/16 00:35:25;;;;;;;2.45;1.15;;;26.50;53.00;;;;;;5031110;28;20204;-40
2022/12/16 00:37:55;;;;;;;1.85;1.30;;;26.50;53.00;;;;;;5013350;28;20943;-38
2022/12/16 00:40:26;;;;;;;1.90;1.08;;;26.50;53.10;;;;;;5011782;28;20243;-38
2022/12/16 00:42:57;;;;;;;1.55;1.10;;;26.50;53.10;;;;;;5013631;28;20201;-38
2022/12/16 00:45:28;;;;;;;1.15;0.90;;;26.50;53.10;;;;;;5003991;28;20205;-42
2022/12/16 00:48:00;;;;;;;2.03;1.25;;;26.60;53.00;;;;;;5013477;28;20657;-38
2022/12/16 00:50:31;;;;;;;2.67;1.23;;;26.50;53.00;;;;;;5013029;28;20193;-41
2022/12/16 00:53:02;;;;;;;2.22;1.25;;;26.60;53.20;;;;;;5015901;28;20193;-39
2022/12/16 00:55:33;;;;;;;1.50;1.00;;;26.60;53.30;;;;;;5015569;28;20244;-38
2022/12/16 00:58:03;;;;;;;1.27;1.05;;;26.60;53.20;;;;;;5013138;28;20255;-43
2022/12/16 01:00:34;;;;;;;1.55;1.15;;;26.70;53.30;;;;;;5012497;28;20715;-40
2022/12/16 01:03:07;;;;;;;2.03;1.10;;;26.70;53.30;;;;;;5013357;28;20281;-39
2022/12/16 01:05:40;;;;;;;2.13;1.33;;;26.70;53.30;;;;;;5013492;28;20213;-41
2022/12/16 01:08:11;;;;;;;1.85;1.10;;;26.80;53.20;;;;;;5013170;28;20201;-44
2022/12/16 01:10:42;;;;;;;1.20;0.98;;;26.80;53.20;;;;;;5012444;28;20204;-39
2022/12/16 01:13:12;;;;;;;1.40;1.00;;;26.80;53.00;;;;;;5010917;28;20661;-39
2022/12/16 01:15:43;;;;;;;2.35;1.25;;;26.90;53.00;;;;;;4997408;28;20229;-40
2022/12/16 01:18:16;;;;;;;2.17;1.20;;;26.90;52.90;;;;;;5012464;28;20205;-39
2022/12/16 01:20:46;;;;;;;2.25;1.10;;;26.90;52.90;;;;;;5012656;28;20221;-42
2022/12/16 01:23:17;;;;;;;2.22;1.20;;;26.90;52.80;;;;;;5011792;28;20204;-46
2022/12/16 01:25:50;;;;;;;1.42;0.95;;;27.00;52.80;;;;;;5012215;28;20232;-39
2022/12/16 01:28:21;;;;;;;1.20;0.95;;;27.00;52.80;;;;;;5013088;28;20200;-40
2022/12/16 01:30:56;;;;;;;1.30;1.00;;;27.00;52.80;;;;;;5012015;28;20579;-40
2022/12/16 01:33:28;;;;;;;2.30;1.08;;;27.00;52.70;;;;;;5012899;28;20208;-43
2022/12/16 01:36:03;;;;;;;1.27;1.00;;;27.00;52.70;;;;;;5012636;28;20209;-41
2022/12/16 01:38:34;;;;;;;1.73;0.80;;;27.10;52.60;;;;;;5012767;28;20207;-37
2022/12/16 01:41:06;;;;;;;2.30;0.90;;;27.10;52.50;;;;;;5013208;28;20595;-43
2022/12/16 01:43:42;;;;;;;1.42;0.80;;;27.10;52.50;;;;;;5009182;28;20218;-42
2022/12/16 01:46:21;;;;;;;1.52;1.10;;;27.20;52.50;;;;;;5012476;28;20216;-37
2022/12/16 01:48:57;;;;;;;0.98;0.88;;;27.20;52.50;;;;;;4993625;28;20197;-36
2022/12/16 01:51:32;;;;;;;1.10;0.93;;;27.20;52.30;;;;;;4999514;28;20220;-38
2022/12/16 01:54:09;;;;;;;1.38;0.90;;;27.30;52.30;;;;;;4992653;28;20205;-40
2022/12/16 01:56:43;;;;;;;1.30;0.85;;;27.30;52.30;;;;;;5011836;28;20216;-37
2022/12/16 01:59:15;;;;;;;0.90;0.70;;;27.30;52.30;;;;;;5012213;28;20197;-39
2022/12/16 02:01:46;;;;;;;0.80;0.70;;;27.40;52.20;;;;;;5012440;28;20200;-37
2022/12/16 02:04:19;;;;;;;1.00;0.80;;;27.40;52.30;;;;;;5011190;28;20201;-46
2022/12/16 02:06:50;;;;;;;0.82;0.82;;;27.40;52.20;;;;;;5012036;28;20245;-38
2022/12/16 02:09:21;;;;;;;1.08;0.90;;;27.50;52.30;;;;;;5012391;28;20680;-43
2022/12/16 02:12:13;;;;;;;0.90;0.80;;;27.50;52.20;;;;;;5012299;28;20615;-38
2022/12/16 02:15:16;;;;;;;2.33;0.98;;;27.50;52.00;;;;;;4997799;28;20206;-36
2022/12/16 02:17:55;;;;;;;1.42;0.93;;;27.60;52.10;;;;;;5008185;28;20231;-42
2022/12/16 02:21:12;;;;;;;1.13;0.70;;;27.60;51.90;;;;;;5011731;28;20229;-39
2022/12/16 02:24:28;;;;;;;1.38;0.88;;;27.60;51.80;;;;;;5008967;28;20653;-37
2022/12/16 02:27:33;;;;;;;1.00;0.82;;;27.70;51.90;;;;;;5001052;28;20212;-37
2022/12/16 02:30:42;;;;;;;1.10;0.80;;;27.70;51.80;;;;;;5011495;28;20201;-36
2022/12/16 02:33:29;;;;;;;1.10;0.77;;;27.70;51.70;;;;;;5011918;28;20649;-37
2022/12/16 02:36:04;;;;;;;0.60;0.60;;;27.80;51.70;;;;;;5011670;28;20217;-44
2022/12/16 02:38:41;;;;;;;0.90;0.85;;;27.80;51.70;;;;;;5011853;28;20204;-43
2022/12/16 02:41:19;;;;;;;0.75;0.52;;;27.80;51.70;;;;;;5010432;28;20589;-37
2022/12/16 02:43:58;;;;;;;1.35;0.70;;;27.80;51.50;;;;;;4991502;28;20665;-37
2022/12/16 02:46:31;;;;;;;0.68;0.68;;;27.90;51.40;;;;;;4995336;28;20680;-42
2022/12/16 02:49:46;;;;;;;0.60;0.50;;;27.90;51.20;;;;;;5013342;28;20299;-43
2022/12/16 02:52:19;;;;;;;0.65;0.60;;;28.00;51.10;;;;;;5011153;28;20724;-38
2022/12/16 02:54:52;;;;;;;0.88;0.55;;;28.00;50.90;;;;;;5011734;28;20208;-38
2022/12/16 02:57:46;;;;;;;0.82;0.70;;;28.10;50.90;;;;;;5011227;28;20689;-36
2022/12/16 03:00:20;;;;;;;0.60;0.60;;;28.10;50.80;;;;;;5008089;28;20875;-38
2022/12/16 03:02:56;;;;;;;0.55;0.55;;;28.10;50.80;;;;;;5011288;28;20196;-38
2022/12/16 03:05:32;;;;;;;0.68;0.60;;;28.20;50.80;;;;;;4991559;28;20209;-36
2022/12/16 03:08:07;;;;;;;1.38;0.70;;;28.20;50.80;;;;;;5007141;28;20716;-38
2022/12/16 03:10:42;;;;;;;1.15;0.70;;;28.30;50.80;;;;;;5011006;28;20196;-38
2022/12/16 03:13:15;;;;;;;1.13;0.60;;;28.30;50.80;;;;;;5008743;28;20196;-37
2022/12/16 03:15:48;;;;;;;0.55;0.55;;;28.30;50.70;;;;;;4991352;28;20232;-38
2022/12/16 03:18:20;;;;;;;0.65;0.57;;;28.40;50.80;;;;;;5007900;28;20671;-43
2022/12/16 03:20:56;;;;;;;1.05;0.73;;;28.40;50.60;;;;;;5010637;28;20594;-36
2022/12/16 03:23:30;;;;;;;1.27;0.50;;;28.50;50.60;;;;;;5010731;28;20204;-40
2022/12/16 03:26:06;;;;;;;0.85;0.50;;;28.50;50.40;;;;;;5010851;28;20587;-37
2022/12/16 03:28:45;;;;;;;0.60;0.50;;;28.50;50.20;;;;;;5010820;28;20251;-36
2022/12/16 03:31:27;;;;;;;0.52;0.40;;;28.60;50.10;;;;;;5010858;28;20192;-37
2022/12/16 03:34:05;;;;;;;0.90;0.50;;;28.60;49.90;;;;;;5010469;28;20671;-36
2022/12/16 03:36:39;;;;;;;1.00;0.70;;;28.70;49.90;;;;;;5010841;28;20220;-38
2022/12/16 03:39:11;;;;;;;1.13;0.57;;;28.70;49.80;;;;;;5011205;28;20671;-42
2022/12/16 03:41:44;;;;;;;0.93;0.60;;;28.80;49.90;;;;;;5010428;28;20279;-39
2022/12/16 03:44:16;;;;;;;1.15;0.60;;;28.80;50.00;;;;;;5009857;28;20201;-39
2022/12/16 03:46:48;;;;;;;0.55;0.50;;;28.90;49.90;;;;;;5011193;28;20239;-43
2022/12/16 03:49:19;;;;;;;0.47;0.43;;;28.90;50.00;;;;;;5010639;28;20618;-37
2022/12/16 03:51:52;;;;;;;0.73;0.50;;;28.90;49.90;;;;;;5009817;28;20200;-40
2022/12/16 03:54:24;;;;;;;0.50;0.45;;;28.90;50.00;;;;;;5010233;28;20442;-36
2022/12/16 03:56:55;;;;;;;0.50;0.50;;;29.00;50.00;;;;;;5010237;28;20300;-36
2022/12/16 03:59:26;;;;;;;0.50;0.50;;;29.00;49.90;;;;;;5010930;28;20656;-37
2022/12/16 04:01:57;;;;;;;0.40;0.40;;;29.10;49.80;;;;;;5010024;28;20197;-38
2022/12/16 04:04:28;;;;;;;0.63;0.60;;;29.10;49.60;;;;;;5009792;28;20203;-36
2022/12/16 04:09:47;;;;;;;0.60;0.50;;;29.20;49.30;;;;;;4999620;28;20836;-38
2022/12/16 04:27:23;;;;;;;0.40;0.40;;;29.40;49.10;;;;;;5009546;28;20302;-38
2022/12/16 04:29:26;;;;;;;0.40;0.40;;;29.40;49.10;;;;;;5009240;28;20311;-38
2022/12/16 04:31:57;;;;;;;0.70;0.50;;;29.50;49.20;;;;;;5010305;28;20255;-37
2022/12/16 04:34:26;;;;;;;0.40;0.40;;;29.50;49.20;;;;;;5010020;28;20216;-39
